sensor_id;sensor_type;location;lat;lon;timestamp;temperature;humidity
52435;DHT22;38354;52.892;6.148;2023-09-07T03:02:42;17.80;99.90
52435;DHT22;38354;52.892;6.148;2023-09-07T03:05:07;17.80;99.90
52435;DHT22;38354;52.892;6.148;2023-09-07T03:07:33;17.80;99.90
52435;DHT22;38354;52.892;6.148;2023-09-07T03:09:59;17.70;99.90
52435;DHT22;38354;52.892;6.148;2023-09-07T03:12:25;17.70;99.90
52435;DHT22;38354;52.892;6.148;2023-09-07T03:14:50;17.60;99.90
52435;DHT22;38354;52.892;6.148;2023-09-07T03:17:16;17.60;99.90
52435;DHT22;38354;52.892;6.148;2023-09-07T03:19:42;17.50;99.90
52435;DHT22;38354;52.892;6.148;2023-09-07T03:22:07;17.50;99.90
52435;DHT22;38354;52.892;6.148;2023-09-07T03:24:34;17.50;99.90
52435;DHT22;38354;52.892;6.148;2023-09-07T03:26:59;17.50;99.90
52435;DHT22;38354;52.892;6.148;2023-09-07T03:29:25;17.50;99.90
52435;DHT22;38354;52.892;6.148;2023-09-07T03:31:51;17.40;99.90
52435;DHT22;38354;52.892;6.148;2023-09-07T03:34:16;17.40;99.90
52435;DHT22;38354;52.892;6.148;2023-09-07T03:36:42;17.40;99.90
52435;DHT22;38354;52.892;6.148;2023-09-07T03:39:07;17.30;99.90
52435;DHT22;38354;52.892;6.148;2023-09-07T03:41:33;17.30;99.90
52435;DHT22;38354;52.892;6.148;2023-09-07T03:43:59;17.20;99.90
52435;DHT22;38354;52.892;6.148;2023-09-07T03:46:26;17.20;99.90
52435;DHT22;38354;52.892;6.148;2023-09-07T03:48:51;17.20;99.90
52435;DHT22;38354;52.892;6.148;2023-09-07T03:51:17;17.10;99.90
52435;DHT22;38354;52.892;6.148;2023-09-07T03:53:42;17.10;99.90
52435;DHT22;38354;52.892;6.148;2023-09-07T03:56:08;17.00;99.90
52435;DHT22;38354;52.892;6.148;2023-09-07T03:58:33;17.00;99.90
52435;DHT22;38354;52.892;6.148;2023-09-07T04:00:59;17.00;99.90
52435;DHT22;38354;52.892;6.148;2023-09-07T04:03:25;16.90;99.90
52435;DHT22;38354;52.892;6.148;2023-09-07T04:05:50;16.90;99.90
52435;DHT22;38354;52.892;6.148;2023-09-07T04:08:16;16.90;99.90
52435;DHT22;38354;52.892;6.148;2023-09-07T04:10:41;16.80;99.90
52435;DHT22;38354;52.892;6.148;2023-09-07T04:13:07;16.80;99.90
52435;DHT22;38354;52.892;6.148;2023-09-07T04:15:42;16.80;99.90
52435;DHT22;38354;52.892;6.148;2023-09-07T04:18:09;16.70;99.90
52435;DHT22;38354;52.892;6.148;2023-09-07T04:20:34;16.70;99.90
52435;DHT22;38354;52.892;6.148;2023-09-07T04:23:00;16.70;99.90
52435;DHT22;38354;52.892;6.148;2023-09-07T04:25:25;16.70;99.90
52435;DHT22;38354;52.892;6.148;2023-09-07T04:27:51;16.60;99.90
52435;DHT22;38354;52.892;6.148;2023-09-07T04:30:17;16.60;99.90
52435;DHT22;38354;52.892;6.148;2023-09-07T04:32:42;16.60;99.90
52435;DHT22;38354;52.892;6.148;2023-09-07T04:35:08;16.60;99.90
52435;DHT22;38354;52.892;6.148;2023-09-07T04:37:34;16.50;99.90
52435;DHT22;38354;52.892;6.148;2023-09-07T04:39:59;16.50;99.90
52435;DHT22;38354;52.892;6.148;2023-09-07T04:42:25;16.60;99.90
52435;DHT22;38354;52.892;6.148;2023-09-07T04:44:50;16.50;99.90
52435;DHT22;38354;52.892;6.148;2023-09-07T04:47:16;16.50;99.90
52435;DHT22;38354;52.892;6.148;2023-09-07T04:49:41;16.50;99.90
52435;DHT22;38354;52.892;6.148;2023-09-07T04:52:07;16.50;99.90
52435;DHT22;38354;52.892;6.148;2023-09-07T04:54:34;16.40;99.90
52435;DHT22;38354;52.892;6.148;2023-09-07T04:56:59;16.50;99.90
52435;DHT22;38354;52.892;6.148;2023-09-07T04:59:25;16.40;99.90
52435;DHT22;38354;52.892;6.148;2023-09-07T05:01:50;16.40;99.90
52435;DHT22;38354;52.892;6.148;2023-09-07T05:04:18;16.40;99.90
52435;DHT22;38354;52.892;6.148;2023-09-07T05:06:43;16.30;99.90
52435;DHT22;38354;52.892;6.148;2023-09-07T05:09:09;16.30;99.90
52435;DHT22;38354;52.892;6.148;2023-09-07T05:11:34;16.30;99.90
52435;DHT22;38354;52.892;6.148;2023-09-07T05:14:01;16.30;99.90
52435;DHT22;38354;52.892;6.148;2023-09-07T05:16:27;16.30;99.90
52435;DHT22;38354;52.892;6.148;2023-09-07T05:18:52;16.20;99.90
52435;DHT22;38354;52.892;6.148;2023-09-07T05:21:18;16.20;99.90
52435;DHT22;38354;52.892;6.148;2023-09-07T05:23:44;16.20;99.90
52435;DHT22;38354;52.892;6.148;2023-09-07T05:26:09;16.20;99.90
52435;DHT22;38354;52.892;6.148;2023-09-07T05:28:35;16.20;99.90
52435;DHT22;38354;52.892;6.148;2023-09-07T05:31:00;16.20;99.90
52435;DHT22;38354;52.892;6.148;2023-09-07T05:33:26;16.20;99.90
52435;DHT22;38354;52.892;6.148;2023-09-07T05:35:51;16.20;99.90
52435;DHT22;38354;52.892;6.148;2023-09-07T05:38:17;16.20;99.90
52435;DHT22;38354;52.892;6.148;2023-09-07T05:40:43;16.20;99.90
52435;DHT22;38354;52.892;6.148;2023-09-07T05:43:09;16.20;99.90
52435;DHT22;38354;52.892;6.148;2023-09-07T05:45:35;16.20;99.90
52435;DHT22;38354;52.892;6.148;2023-09-07T05:48:04;16.30;99.90
52435;DHT22;38354;52.892;6.148;2023-09-07T05:50:29;16.30;99.90
52435;DHT22;38354;52.892;6.148;2023-09-07T05:52:55;16.40;99.90
52435;DHT22;38354;52.892;6.148;2023-09-07T05:55:21;16.50;99.90
52435;DHT22;38354;52.892;6.148;2023-09-07T05:57:46;16.50;99.90
52435;DHT22;38354;52.892;6.148;2023-09-07T06:00:14;16.50;99.90
52435;DHT22;38354;52.892;6.148;2023-09-07T06:02:42;16.60;99.90
52435;DHT22;38354;52.892;6.148;2023-09-07T06:05:08;16.60;99.90
52435;DHT22;38354;52.892;6.148;2023-09-07T06:07:33;16.70;99.90
52435;DHT22;38354;52.892;6.148;2023-09-07T06:09:59;16.70;99.90
52435;DHT22;38354;52.892;6.148;2023-09-07T06:12:24;16.80;99.90
52435;DHT22;38354;52.892;6.148;2023-09-07T06:14:50;16.80;99.90
52435;DHT22;38354;52.892;6.148;2023-09-07T06:17:15;16.90;99.90
52435;DHT22;38354;52.892;6.148;2023-09-07T06:19:41;16.90;99.90
52435;DHT22;38354;52.892;6.148;2023-09-07T06:22:07;17.00;99.90
52435;DHT22;38354;52.892;6.148;2023-09-07T06:24:32;17.10;99.90
52435;DHT22;38354;52.892;6.148;2023-09-07T06:26:58;17.10;99.90
52435;DHT22;38354;52.892;6.148;2023-09-07T06:29:23;17.30;99.90
52435;DHT22;38354;52.892;6.148;2023-09-07T06:31:49;17.30;99.90
52435;DHT22;38354;52.892;6.148;2023-09-07T06:34:15;17.40;99.90
52435;DHT22;38354;52.892;6.148;2023-09-07T06:36:41;17.50;99.90
52435;DHT22;38354;52.892;6.148;2023-09-07T06:39:06;17.50;99.90
52435;DHT22;38354;52.892;6.148;2023-09-07T06:41:32;17.60;99.90
52435;DHT22;38354;52.892;6.148;2023-09-07T06:43:57;17.70;99.90
52435;DHT22;38354;52.892;6.148;2023-09-07T06:46:23;17.80;99.90
52435;DHT22;38354;52.892;6.148;2023-09-07T06:48:48;17.90;99.90
52435;DHT22;38354;52.892;6.148;2023-09-07T06:51:14;18.00;99.90
52435;DHT22;38354;52.892;6.148;2023-09-07T06:53:40;18.10;99.90
52435;DHT22;38354;52.892;6.148;2023-09-07T06:56:06;18.30;99.90
52435;DHT22;38354;52.892;6.148;2023-09-07T06:58:32;18.30;99.90
52435;DHT22;38354;52.892;6.148;2023-09-07T07:00:59;18.40;99.90
52435;DHT22;38354;52.892;6.148;2023-09-07T07:03:26;18.50;99.90
52435;DHT22;38354;52.892;6.148;2023-09-07T07:05:52;18.50;99.90
52435;DHT22;38354;52.892;6.148;2023-09-07T07:08:17;18.50;99.90
52435;DHT22;38354;52.892;6.148;2023-09-07T07:10:43;18.60;99.90
52435;DHT22;38354;52.892;6.148;2023-09-07T07:13:09;18.70;99.90
52435;DHT22;38354;52.892;6.148;2023-09-07T07:15:34;18.80;99.90
52435;DHT22;38354;52.892;6.148;2023-09-07T07:18:01;18.80;99.90
52435;DHT22;38354;52.892;6.148;2023-09-07T07:20:26;18.90;99.90
52435;DHT22;38354;52.892;6.148;2023-09-07T07:22:52;19.00;99.90
52435;DHT22;38354;52.892;6.148;2023-09-07T07:25:17;19.10;99.90
52435;DHT22;38354;52.892;6.148;2023-09-07T07:27:43;19.10;99.90
52435;DHT22;38354;52.892;6.148;2023-09-07T07:30:10;19.20;99.90
52435;DHT22;38354;52.892;6.148;2023-09-07T07:32:36;19.30;99.90
52435;DHT22;38354;52.892;6.148;2023-09-07T07:35:01;19.30;99.90
52435;DHT22;38354;52.892;6.148;2023-09-07T07:37:27;19.40;99.90
52435;DHT22;38354;52.892;6.148;2023-09-07T07:39:53;19.50;99.90
52435;DHT22;38354;52.892;6.148;2023-09-07T07:42:18;19.60;99.90
52435;DHT22;38354;52.892;6.148;2023-09-07T07:44:44;19.70;99.90
52435;DHT22;38354;52.892;6.148;2023-09-07T07:47:10;19.70;99.90
52435;DHT22;38354;52.892;6.148;2023-09-07T07:49:36;19.80;99.90
52435;DHT22;38354;52.892;6.148;2023-09-07T07:52:02;19.90;99.90
52435;DHT22;38354;52.892;6.148;2023-09-07T07:54:27;20.00;99.90
52435;DHT22;38354;52.892;6.148;2023-09-07T07:56:54;20.10;99.90
52435;DHT22;38354;52.892;6.148;2023-09-07T07:59:19;20.20;99.90
52435;DHT22;38354;52.892;6.148;2023-09-07T08:01:45;20.30;99.90
52435;DHT22;38354;52.892;6.148;2023-09-07T08:04:11;20.40;99.90
52435;DHT22;38354;52.892;6.148;2023-09-07T08:06:36;20.50;99.90
52435;DHT22;38354;52.892;6.148;2023-09-07T08:09:02;20.70;99.90
52435;DHT22;38354;52.892;6.148;2023-09-07T08:11:28;20.80;99.90
52435;DHT22;38354;52.892;6.148;2023-09-07T08:13:54;20.90;99.90
52435;DHT22;38354;52.892;6.148;2023-09-07T08:16:19;21.00;99.90
52435;DHT22;38354;52.892;6.148;2023-09-07T08:18:45;21.10;99.90
52435;DHT22;38354;52.892;6.148;2023-09-07T08:21:11;21.10;99.90
52435;DHT22;38354;52.892;6.148;2023-09-07T08:23:37;21.30;99.90
52435;DHT22;38354;52.892;6.148;2023-09-07T08:26:03;21.40;99.90
52435;DHT22;38354;52.892;6.148;2023-09-07T08:28:28;21.40;99.90
52435;DHT22;38354;52.892;6.148;2023-09-07T08:30:54;21.60;99.90
52435;DHT22;38354;52.892;6.148;2023-09-07T08:33:23;21.60;99.90
52435;DHT22;38354;52.892;6.148;2023-09-07T08:35:52;21.70;99.90
52435;DHT22;38354;52.892;6.148;2023-09-07T08:38:18;21.80;99.90
52435;DHT22;38354;52.892;6.148;2023-09-07T08:40:47;21.90;99.90
52435;DHT22;38354;52.892;6.148;2023-09-07T08:43:13;22.10;99.90
52435;DHT22;38354;52.892;6.148;2023-09-07T08:45:46;22.10;99.90
52435;DHT22;38354;52.892;6.148;2023-09-07T08:48:13;22.30;99.90
52435;DHT22;38354;52.892;6.148;2023-09-07T08:50:40;22.40;99.90
52435;DHT22;38354;52.892;6.148;2023-09-07T08:53:07;22.40;99.90
52435;DHT22;38354;52.892;6.148;2023-09-07T08:55:33;22.50;99.90
52435;DHT22;38354;52.892;6.148;2023-09-07T08:57:59;22.70;99.90
52435;DHT22;38354;52.892;6.148;2023-09-07T09:00:24;22.70;99.90
52435;DHT22;38354;52.892;6.148;2023-09-07T09:02:50;22.90;99.90
52435;DHT22;38354;52.892;6.148;2023-09-07T09:05:16;23.00;99.90
52435;DHT22;38354;52.892;6.148;2023-09-07T09:07:44;23.10;99.90
52435;DHT22;38354;52.892;6.148;2023-09-07T09:10:10;23.20;99.90
52435;DHT22;38354;52.892;6.148;2023-09-07T09:12:35;23.30;99.90
52435;DHT22;38354;52.892;6.148;2023-09-07T09:15:01;23.40;99.90
52435;DHT22;38354;52.892;6.148;2023-09-07T09:17:28;23.50;99.90
52435;DHT22;38354;52.892;6.148;2023-09-07T09:19:54;23.60;99.90
52435;DHT22;38354;52.892;6.148;2023-09-07T09:22:19;23.80;99.90
52435;DHT22;38354;52.892;6.148;2023-09-07T09:24:47;23.90;99.90
52435;DHT22;38354;52.892;6.148;2023-09-07T09:27:13;24.00;99.90
52435;DHT22;38354;52.892;6.148;2023-09-07T09:29:38;24.10;99.90
52435;DHT22;38354;52.892;6.148;2023-09-07T09:32:04;24.30;99.90
52435;DHT22;38354;52.892;6.148;2023-09-07T09:34:33;24.50;99.90
52435;DHT22;38354;52.892;6.148;2023-09-07T09:36:59;24.70;99.90
52435;DHT22;38354;52.892;6.148;2023-09-07T09:39:25;24.70;99.90
52435;DHT22;38354;52.892;6.148;2023-09-07T09:41:52;24.80;99.90
52435;DHT22;38354;52.892;6.148;2023-09-07T09:44:17;24.80;99.90
52435;DHT22;38354;52.892;6.148;2023-09-07T09:46:45;25.00;99.90
52435;DHT22;38354;52.892;6.148;2023-09-07T09:49:12;25.00;99.90
52435;DHT22;38354;52.892;6.148;2023-09-07T09:51:39;25.20;99.90
52435;DHT22;38354;52.892;6.148;2023-09-07T09:54:05;25.30;99.90
52435;DHT22;38354;52.892;6.148;2023-09-07T09:56:31;25.40;99.90
52435;DHT22;38354;52.892;6.148;2023-09-07T09:58:57;25.50;99.90
52435;DHT22;38354;52.892;6.148;2023-09-07T10:01:22;25.60;99.90
52435;DHT22;38354;52.892;6.148;2023-09-07T10:03:48;25.70;99.90
52435;DHT22;38354;52.892;6.148;2023-09-07T10:06:18;25.80;99.90
52435;DHT22;38354;52.892;6.148;2023-09-07T10:08:57;25.90;99.90
52435;DHT22;38354;52.892;6.148;2023-09-07T10:11:29;26.00;99.90
52435;DHT22;38354;52.892;6.148;2023-09-07T10:13:58;26.10;99.90
52435;DHT22;38354;52.892;6.148;2023-09-07T10:16:24;26.20;99.90
52435;DHT22;38354;52.892;6.148;2023-09-07T10:18:49;26.30;99.90
52435;DHT22;38354;52.892;6.148;2023-09-07T10:21:15;26.40;99.90
52435;DHT22;38354;52.892;6.148;2023-09-07T10:23:41;26.50;99.90
52435;DHT22;38354;52.892;6.148;2023-09-07T10:26:17;26.60;99.90
52435;DHT22;38354;52.892;6.148;2023-09-07T10:28:43;26.70;99.90
52435;DHT22;38354;52.892;6.148;2023-09-07T10:31:16;26.80;99.90
52435;DHT22;38354;52.892;6.148;2023-09-07T10:33:42;26.80;99.90
52435;DHT22;38354;52.892;6.148;2023-09-07T10:36:08;27.00;99.90
52435;DHT22;38354;52.892;6.148;2023-09-07T10:38:44;27.00;99.90
52435;DHT22;38354;52.892;6.148;2023-09-07T10:41:10;27.10;99.90
52435;DHT22;38354;52.892;6.148;2023-09-07T10:43:37;27.20;99.90
52435;DHT22;38354;52.892;6.148;2023-09-07T10:46:11;27.30;99.90
52435;DHT22;38354;52.892;6.148;2023-09-07T10:48:36;27.40;99.90
52435;DHT22;38354;52.892;6.148;2023-09-07T10:51:02;27.40;99.90
52435;DHT22;38354;52.892;6.148;2023-09-07T10:53:31;27.50;99.90
52435;DHT22;38354;52.892;6.148;2023-09-07T10:55:58;27.50;99.90
52435;DHT22;38354;52.892;6.148;2023-09-07T10:58:28;27.60;99.90
52435;DHT22;38354;52.892;6.148;2023-09-07T11:00:54;27.70;99.90
52435;DHT22;38354;52.892;6.148;2023-09-07T11:03:20;27.80;99.90
52435;DHT22;38354;52.892;6.148;2023-09-07T11:05:45;27.80;99.90
52435;DHT22;38354;52.892;6.148;2023-09-07T11:08:11;27.90;99.90
52435;DHT22;38354;52.892;6.148;2023-09-07T11:10:37;27.80;99.90
52435;DHT22;38354;52.892;6.148;2023-09-07T11:13:05;27.90;99.90
52435;DHT22;38354;52.892;6.148;2023-09-07T11:15:32;27.90;99.90
52435;DHT22;38354;52.892;6.148;2023-09-07T11:18:05;28.00;99.90
52435;DHT22;38354;52.892;6.148;2023-09-07T11:20:32;28.10;99.90
52435;DHT22;38354;52.892;6.148;2023-09-07T11:22:58;28.20;99.90
52435;DHT22;38354;52.892;6.148;2023-09-07T11:25:24;28.20;99.90
52435;DHT22;38354;52.892;6.148;2023-09-07T11:27:51;28.30;99.90
52435;DHT22;38354;52.892;6.148;2023-09-07T11:30:17;28.40;99.90
52435;DHT22;38354;52.892;6.148;2023-09-07T11:32:43;28.40;99.90
52435;DHT22;38354;52.892;6.148;2023-09-07T11:35:09;28.50;99.90
52435;DHT22;38354;52.892;6.148;2023-09-07T11:37:34;28.50;99.90
52435;DHT22;38354;52.892;6.148;2023-09-07T11:40:00;28.50;99.90
52435;DHT22;38354;52.892;6.148;2023-09-07T11:42:26;28.60;99.90
52435;DHT22;38354;52.892;6.148;2023-09-07T11:44:52;28.70;99.90
52435;DHT22;38354;52.892;6.148;2023-09-07T11:47:17;28.70;99.90
52435;DHT22;38354;52.892;6.148;2023-09-07T11:49:43;28.70;99.90
52435;DHT22;38354;52.892;6.148;2023-09-07T11:52:08;28.70;99.90
52435;DHT22;38354;52.892;6.148;2023-09-07T11:54:34;28.80;99.90
52435;DHT22;38354;52.892;6.148;2023-09-07T11:56:59;28.80;99.90
52435;DHT22;38354;52.892;6.148;2023-09-07T11:59:25;28.80;99.90
52435;DHT22;38354;52.892;6.148;2023-09-07T12:01:51;28.90;99.90
52435;DHT22;38354;52.892;6.148;2023-09-07T12:04:16;28.90;99.90
52435;DHT22;38354;52.892;6.148;2023-09-07T12:06:42;29.00;99.90
52435;DHT22;38354;52.892;6.148;2023-09-07T12:09:07;29.10;99.90
52435;DHT22;38354;52.892;6.148;2023-09-07T12:11:35;29.10;99.90
52435;DHT22;38354;52.892;6.148;2023-09-07T12:14:00;29.10;99.90
52435;DHT22;38354;52.892;6.148;2023-09-07T12:16:26;29.10;99.90
52435;DHT22;38354;52.892;6.148;2023-09-07T12:18:52;29.10;99.90
52435;DHT22;38354;52.892;6.148;2023-09-07T12:21:17;29.20;99.90
52435;DHT22;38354;52.892;6.148;2023-09-07T12:23:43;29.20;99.90
52435;DHT22;38354;52.892;6.148;2023-09-07T12:26:08;29.20;99.90
52435;DHT22;38354;52.892;6.148;2023-09-07T12:28:34;29.30;99.90
52435;DHT22;38354;52.892;6.148;2023-09-07T12:30:59;29.30;99.90
52435;DHT22;38354;52.892;6.148;2023-09-07T12:33:25;29.30;99.90
52435;DHT22;38354;52.892;6.148;2023-09-07T12:35:51;29.30;99.90
52435;DHT22;38354;52.892;6.148;2023-09-07T12:38:16;29.40;99.90
52435;DHT22;38354;52.892;6.148;2023-09-07T12:40:47;29.40;99.90
52435;DHT22;38354;52.892;6.148;2023-09-07T12:43:14;29.40;99.90
52435;DHT22;38354;52.892;6.148;2023-09-07T12:45:39;29.50;99.90
52435;DHT22;38354;52.892;6.148;2023-09-07T12:48:05;29.60;99.90
52435;DHT22;38354;52.892;6.148;2023-09-07T12:50:31;29.70;99.90
52435;DHT22;38354;52.892;6.148;2023-09-07T12:52:57;29.60;99.90
52435;DHT22;38354;52.892;6.148;2023-09-07T12:55:22;29.60;99.90
52435;DHT22;38354;52.892;6.148;2023-09-07T12:57:50;29.60;99.90
52435;DHT22;38354;52.892;6.148;2023-09-07T13:00:15;29.60;99.90
52435;DHT22;38354;52.892;6.148;2023-09-07T13:02:41;29.70;99.90
52435;DHT22;38354;52.892;6.148;2023-09-07T13:05:07;29.70;99.90
52435;DHT22;38354;52.892;6.148;2023-09-07T13:07:33;29.80;99.90
52435;DHT22;38354;52.892;6.148;2023-09-07T13:10:00;29.80;99.90
52435;DHT22;38354;52.892;6.148;2023-09-07T13:12:29;29.80;99.90
52435;DHT22;38354;52.892;6.148;2023-09-07T13:14:55;29.80;99.90
52435;DHT22;38354;52.892;6.148;2023-09-07T13:17:20;29.90;99.90
52435;DHT22;38354;52.892;6.148;2023-09-07T13:19:46;29.90;99.90
52435;DHT22;38354;52.892;6.148;2023-09-07T13:22:13;30.00;99.90
52435;DHT22;38354;52.892;6.148;2023-09-07T13:24:39;30.00;99.90
52435;DHT22;38354;52.892;6.148;2023-09-07T13:27:05;30.00;99.90
52435;DHT22;38354;52.892;6.148;2023-09-07T13:29:31;30.00;99.90
52435;DHT22;38354;52.892;6.148;2023-09-07T13:31:57;30.10;99.90
52435;DHT22;38354;52.892;6.148;2023-09-07T13:34:23;30.20;99.90
52435;DHT22;38354;52.892;6.148;2023-09-07T13:36:49;30.20;99.90
52435;DHT22;38354;52.892;6.148;2023-09-07T13:39:15;30.10;99.90
52435;DHT22;38354;52.892;6.148;2023-09-07T13:41:40;30.10;99.90
52435;DHT22;38354;52.892;6.148;2023-09-07T13:44:06;30.20;99.90
52435;DHT22;38354;52.892;6.148;2023-09-07T13:46:32;30.10;99.90
52435;DHT22;38354;52.892;6.148;2023-09-07T13:48:57;30.10;99.90
52435;DHT22;38354;52.892;6.148;2023-09-07T13:51:23;30.20;99.90
52435;DHT22;38354;52.892;6.148;2023-09-07T13:53:50;30.10;99.90
52435;DHT22;38354;52.892;6.148;2023-09-07T13:56:16;30.10;99.90
52435;DHT22;38354;52.892;6.148;2023-09-07T13:58:41;30.10;99.90
52435;DHT22;38354;52.892;6.148;2023-09-07T14:01:07;30.10;99.90
52435;DHT22;38354;52.892;6.148;2023-09-07T14:03:32;30.10;99.90
52435;DHT22;38354;52.892;6.148;2023-09-07T14:05:58;30.10;99.90
52435;DHT22;38354;52.892;6.148;2023-09-07T14:08:23;30.20;99.90
52435;DHT22;38354;52.892;6.148;2023-09-07T14:10:50;30.20;99.90
52435;DHT22;38354;52.892;6.148;2023-09-07T14:13:17;30.20;99.90
52435;DHT22;38354;52.892;6.148;2023-09-07T14:15:42;30.20;99.90
52435;DHT22;38354;52.892;6.148;2023-09-07T14:18:08;30.20;99.90
52435;DHT22;38354;52.892;6.148;2023-09-07T14:20:34;30.20;99.90
52435;DHT22;38354;52.892;6.148;2023-09-07T14:23:00;30.20;99.90
52435;DHT22;38354;52.892;6.148;2023-09-07T14:25:26;30.10;99.90
52435;DHT22;38354;52.892;6.148;2023-09-07T14:27:52;30.10;99.90
52435;DHT22;38354;52.892;6.148;2023-09-07T14:30:17;30.10;99.90
52435;DHT22;38354;52.892;6.148;2023-09-07T14:32:43;30.20;99.90
52435;DHT22;38354;52.892;6.148;2023-09-07T14:35:09;30.20;99.90
52435;DHT22;38354;52.892;6.148;2023-09-07T14:37:36;30.10;99.90
52435;DHT22;38354;52.892;6.148;2023-09-07T14:40:02;30.10;99.90
52435;DHT22;38354;52.892;6.148;2023-09-07T14:42:28;30.10;99.90
52435;DHT22;38354;52.892;6.148;2023-09-07T14:44:53;30.10;99.90
52435;DHT22;38354;52.892;6.148;2023-09-07T14:47:19;30.10;99.90
52435;DHT22;38354;52.892;6.148;2023-09-07T14:49:51;30.10;99.90
52435;DHT22;38354;52.892;6.148;2023-09-07T14:52:17;30.10;99.90
52435;DHT22;38354;52.892;6.148;2023-09-07T14:54:43;30.20;99.90
52435;DHT22;38354;52.892;6.148;2023-09-07T14:57:09;30.20;99.90
52435;DHT22;38354;52.892;6.148;2023-09-07T14:59:34;30.20;99.90
52435;DHT22;38354;52.892;6.148;2023-09-07T15:02:00;30.20;99.90
52435;DHT22;38354;52.892;6.148;2023-09-07T15:04:25;30.20;99.90
52435;DHT22;38354;52.892;6.148;2023-09-07T15:06:51;30.20;99.90
52435;DHT22;38354;52.892;6.148;2023-09-07T15:09:17;30.20;99.90
52435;DHT22;38354;52.892;6.148;2023-09-07T15:11:43;30.10;99.90
52435;DHT22;38354;52.892;6.148;2023-09-07T15:14:08;30.10;99.90
52435;DHT22;38354;52.892;6.148;2023-09-07T15:16:33;30.10;99.90
52435;DHT22;38354;52.892;6.148;2023-09-07T15:18:59;30.10;99.90
52435;DHT22;38354;52.892;6.148;2023-09-07T15:21:26;30.10;99.90
52435;DHT22;38354;52.892;6.148;2023-09-07T15:23:51;30.00;99.90
52435;DHT22;38354;52.892;6.148;2023-09-07T15:26:17;30.00;99.90
52435;DHT22;38354;52.892;6.148;2023-09-07T15:28:42;30.00;99.90
52435;DHT22;38354;52.892;6.148;2023-09-07T15:31:08;29.90;99.90
52435;DHT22;38354;52.892;6.148;2023-09-07T15:33:34;29.90;99.90
52435;DHT22;38354;52.892;6.148;2023-09-07T15:36:00;29.90;99.90
52435;DHT22;38354;52.892;6.148;2023-09-07T15:38:26;29.90;99.90
52435;DHT22;38354;52.892;6.148;2023-09-07T15:40:52;29.90;99.90
52435;DHT22;38354;52.892;6.148;2023-09-07T15:43:17;29.80;99.90
52435;DHT22;38354;52.892;6.148;2023-09-07T15:45:43;29.90;99.90
52435;DHT22;38354;52.892;6.148;2023-09-07T15:48:10;29.80;99.90
52435;DHT22;38354;52.892;6.148;2023-09-07T15:50:36;29.80;99.90
52435;DHT22;38354;52.892;6.148;2023-09-07T15:53:02;29.70;99.90
52435;DHT22;38354;52.892;6.148;2023-09-07T15:55:27;29.70;99.90
52435;DHT22;38354;52.892;6.148;2023-09-07T15:57:53;29.70;99.90
52435;DHT22;38354;52.892;6.148;2023-09-07T16:00:19;29.70;99.90
52435;DHT22;38354;52.892;6.148;2023-09-07T16:02:45;29.60;99.90
52435;DHT22;38354;52.892;6.148;2023-09-07T16:05:11;29.60;99.90
52435;DHT22;38354;52.892;6.148;2023-09-07T16:07:36;29.50;99.90
52435;DHT22;38354;52.892;6.148;2023-09-07T16:10:02;29.50;99.90
52435;DHT22;38354;52.892;6.148;2023-09-07T16:12:27;29.40;99.90
52435;DHT22;38354;52.892;6.148;2023-09-07T16:14:53;29.30;99.90
52435;DHT22;38354;52.892;6.148;2023-09-07T16:17:18;29.30;99.90
52435;DHT22;38354;52.892;6.148;2023-09-07T16:19:44;29.20;99.90
52435;DHT22;38354;52.892;6.148;2023-09-07T16:22:09;29.10;99.90
52435;DHT22;38354;52.892;6.148;2023-09-07T16:24:35;29.00;99.90
52435;DHT22;38354;52.892;6.148;2023-09-07T16:27:01;28.90;99.90
52435;DHT22;38354;52.892;6.148;2023-09-07T16:29:26;28.80;99.90
52435;DHT22;38354;52.892;6.148;2023-09-07T16:31:52;28.70;99.90
52435;DHT22;38354;52.892;6.148;2023-09-07T16:34:17;28.60;99.90
52435;DHT22;38354;52.892;6.148;2023-09-07T16:36:44;28.50;99.90
52435;DHT22;38354;52.892;6.148;2023-09-07T16:39:10;28.40;99.90
52435;DHT22;38354;52.892;6.148;2023-09-07T16:41:36;28.30;99.90
52435;DHT22;38354;52.892;6.148;2023-09-07T16:44:01;28.20;99.90
52435;DHT22;38354;52.892;6.148;2023-09-07T16:46:27;28.10;99.90
52435;DHT22;38354;52.892;6.148;2023-09-07T16:48:52;28.10;99.90
52435;DHT22;38354;52.892;6.148;2023-09-07T16:51:18;28.00;99.90
52435;DHT22;38354;52.892;6.148;2023-09-07T16:53:54;27.90;99.90
52435;DHT22;38354;52.892;6.148;2023-09-07T16:56:19;27.80;99.90
52435;DHT22;38354;52.892;6.148;2023-09-07T16:58:46;27.70;99.90
52435;DHT22;38354;52.892;6.148;2023-09-07T17:01:12;27.60;99.90
52435;DHT22;38354;52.892;6.148;2023-09-07T17:03:37;27.50;99.90
52435;DHT22;38354;52.892;6.148;2023-09-07T17:06:03;27.50;99.90
52435;DHT22;38354;52.892;6.148;2023-09-07T17:08:28;27.40;99.90
52435;DHT22;38354;52.892;6.148;2023-09-07T17:10:54;27.30;99.90
52435;DHT22;38354;52.892;6.148;2023-09-07T17:13:19;27.20;99.90
52435;DHT22;38354;52.892;6.148;2023-09-07T17:15:49;27.10;99.90
52435;DHT22;38354;52.892;6.148;2023-09-07T17:18:15;27.00;99.90
52435;DHT22;38354;52.892;6.148;2023-09-07T17:20:40;27.00;99.90
52435;DHT22;38354;52.892;6.148;2023-09-07T17:23:06;26.90;99.90
52435;DHT22;38354;52.892;6.148;2023-09-07T17:25:32;26.80;99.90
52435;DHT22;38354;52.892;6.148;2023-09-07T17:27:58;26.70;99.90
52435;DHT22;38354;52.892;6.148;2023-09-07T17:30:23;26.60;99.90
52435;DHT22;38354;52.892;6.148;2023-09-07T17:32:49;26.60;99.90
52435;DHT22;38354;52.892;6.148;2023-09-07T17:35:15;26.50;99.90
52435;DHT22;38354;52.892;6.148;2023-09-07T17:37:40;26.40;99.90
52435;DHT22;38354;52.892;6.148;2023-09-07T17:40:07;26.30;99.90
52435;DHT22;38354;52.892;6.148;2023-09-07T17:42:33;26.30;99.90
52435;DHT22;38354;52.892;6.148;2023-09-07T17:44:58;26.10;99.90
52435;DHT22;38354;52.892;6.148;2023-09-07T17:47:24;26.10;99.90
52435;DHT22;38354;52.892;6.148;2023-09-07T17:49:49;26.00;99.90
52435;DHT22;38354;52.892;6.148;2023-09-07T17:52:15;25.90;99.90
52435;DHT22;38354;52.892;6.148;2023-09-07T17:54:40;25.80;99.90
52435;DHT22;38354;52.892;6.148;2023-09-07T17:57:06;25.80;99.90
52435;DHT22;38354;52.892;6.148;2023-09-07T17:59:32;25.70;99.90
52435;DHT22;38354;52.892;6.148;2023-09-07T18:01:58;25.60;99.90
52435;DHT22;38354;52.892;6.148;2023-09-07T18:04:23;25.50;99.90
52435;DHT22;38354;52.892;6.148;2023-09-07T18:06:49;25.50;99.90
52435;DHT22;38354;52.892;6.148;2023-09-07T18:09:15;25.50;99.90
52435;DHT22;38354;52.892;6.148;2023-09-07T18:11:40;25.30;99.90
52435;DHT22;38354;52.892;6.148;2023-09-07T18:14:09;25.30;99.90
52435;DHT22;38354;52.892;6.148;2023-09-07T18:16:35;25.20;99.90
52435;DHT22;38354;52.892;6.148;2023-09-07T18:19:01;25.20;99.90
52435;DHT22;38354;52.892;6.148;2023-09-07T18:21:27;25.10;99.90
52435;DHT22;38354;52.892;6.148;2023-09-07T18:23:52;25.00;99.90